sensor_id;sensor_type;location;lat;lon;timestamp;P1;durP1;ratioP1;P2;durP2;ratioP2
30571;SDS011;17348;50.948;10.696;2023-06-24T00:01:35;14.00;;;8.10;;
30571;SDS011;17348;50.948;10.696;2023-06-24T00:04:39;12.98;;;7.72;;
30571;SDS011;17348;50.948;10.696;2023-06-24T00:07:41;16.83;;;8.18;;
30571;SDS011;17348;50.948;10.696;2023-06-24T00:10:45;15.48;;;7.90;;
30571;SDS011;17348;50.948;10.696;2023-06-24T00:13:49;30.52;;;8.88;;
30571;SDS011;17348;50.948;10.696;2023-06-24T00:16:51;12.55;;;8.60;;
30571;SDS011;17348;50.948;10.696;2023-06-24T00:19:54;18.05;;;9.20;;
30571;SDS011;17348;50.948;10.696;2023-06-24T00:22:57;16.08;;;8.57;;
30571;SDS011;17348;50.948;10.696;2023-06-24T00:25:59;19.33;;;8.35;;
30571;SDS011;17348;50.948;10.696;2023-06-24T00:29:03;15.88;;;8.07;;
30571;SDS011;17348;50.948;10.696;2023-06-24T00:32:06;16.23;;;7.80;;
30571;SDS011;17348;50.948;10.696;2023-06-24T00:35:09;14.50;;;7.63;;
30571;SDS011;17348;50.948;10.696;2023-06-24T00:38:12;15.27;;;8.65;;
30571;SDS011;17348;50.948;10.696;2023-06-24T00:41:16;12.85;;;7.22;;
30571;SDS011;17348;50.948;10.696;2023-06-24T00:44:20;12.20;;;7.75;;
30571;SDS011;17348;50.948;10.696;2023-06-24T00:47:22;18.63;;;7.53;;
30571;SDS011;17348;50.948;10.696;2023-06-24T00:50:25;14.30;;;7.47;;
30571;SDS011;17348;50.948;10.696;2023-06-24T00:53:27;16.55;;;7.65;;
30571;SDS011;17348;50.948;10.696;2023-06-24T00:56:31;12.32;;;7.78;;
30571;SDS011;17348;50.948;10.696;2023-06-24T00:59:36;11.70;;;7.25;;
30571;SDS011;17348;50.948;10.696;2023-06-24T01:02:40;22.67;;;7.85;;
30571;SDS011;17348;50.948;10.696;2023-06-24T01:05:43;11.23;;;7.32;;
30571;SDS011;17348;50.948;10.696;2023-06-24T01:08:46;17.23;;;7.38;;
30571;SDS011;17348;50.948;10.696;2023-06-24T01:11:51;22.63;;;7.38;;
30571;SDS011;17348;50.948;10.696;2023-06-24T01:14:55;13.82;;;7.53;;
30571;SDS011;17348;50.948;10.696;2023-06-24T01:17:59;19.63;;;7.97;;
30571;SDS011;17348;50.948;10.696;2023-06-24T01:21:10;24.42;;;8.75;;
30571;SDS011;17348;50.948;10.696;2023-06-24T01:24:29;12.65;;;6.90;;
30571;SDS011;17348;50.948;10.696;2023-06-24T01:34:40;19.40;;;7.57;;
30571;SDS011;17348;50.948;10.696;2023-06-24T01:37:51;14.38;;;7.10;;
30571;SDS011;17348;50.948;10.696;2023-06-24T01:40:54;11.30;;;6.57;;
30571;SDS011;17348;50.948;10.696;2023-06-24T01:43:57;15.32;;;7.05;;
30571;SDS011;17348;50.948;10.696;2023-06-24T01:47:00;10.68;;;7.35;;
30571;SDS011;17348;50.948;10.696;2023-06-24T01:50:10;17.50;;;8.23;;
30571;SDS011;17348;50.948;10.696;2023-06-24T01:53:14;13.32;;;7.53;;
30571;SDS011;17348;50.948;10.696;2023-06-24T01:56:18;14.40;;;7.32;;
30571;SDS011;17348;50.948;10.696;2023-06-24T01:59:23;15.32;;;7.28;;
30571;SDS011;17348;50.948;10.696;2023-06-24T02:02:29;13.23;;;7.35;;
30571;SDS011;17348;50.948;10.696;2023-06-24T02:05:34;13.05;;;7.43;;
30571;SDS011;17348;50.948;10.696;2023-06-24T02:08:40;11.80;;;6.93;;
30571;SDS011;17348;50.948;10.696;2023-06-24T02:11:44;11.52;;;6.53;;
30571;SDS011;17348;50.948;10.696;2023-06-24T02:14:48;17.15;;;6.90;;
30571;SDS011;17348;50.948;10.696;2023-06-24T02:17:51;14.40;;;7.10;;
30571;SDS011;17348;50.948;10.696;2023-06-24T02:20:58;11.00;;;6.72;;
30571;SDS011;17348;50.948;10.696;2023-06-24T02:24:03;11.52;;;7.72;;
30571;SDS011;17348;50.948;10.696;2023-06-24T02:27:06;14.35;;;7.65;;
30571;SDS011;17348;50.948;10.696;2023-06-24T02:30:10;12.02;;;6.95;;
30571;SDS011;17348;50.948;10.696;2023-06-24T02:33:14;17.80;;;7.88;;
30571;SDS011;17348;50.948;10.696;2023-06-24T02:36:18;13.95;;;7.78;;
30571;SDS011;17348;50.948;10.696;2023-06-24T02:39:20;14.00;;;7.80;;
30571;SDS011;17348;50.948;10.696;2023-06-24T02:42:23;15.90;;;7.38;;
30571;SDS011;17348;50.948;10.696;2023-06-24T02:45:26;16.50;;;8.57;;
30571;SDS011;17348;50.948;10.696;2023-06-24T02:48:29;17.10;;;8.25;;
30571;SDS011;17348;50.948;10.696;2023-06-24T02:51:34;12.48;;;7.03;;
30571;SDS011;17348;50.948;10.696;2023-06-24T02:54:38;11.80;;;7.03;;
30571;SDS011;17348;50.948;10.696;2023-06-24T02:57:41;10.45;;;7.18;;
30571;SDS011;17348;50.948;10.696;2023-06-24T03:00:45;12.88;;;8.13;;
30571;SDS011;17348;50.948;10.696;2023-06-24T03:03:48;16.05;;;7.43;;
30571;SDS011;17348;50.948;10.696;2023-06-24T03:06:52;16.75;;;8.07;;
30571;SDS011;17348;50.948;10.696;2023-06-24T03:09:55;16.80;;;7.70;;
30571;SDS011;17348;50.948;10.696;2023-06-24T03:12:58;11.88;;;8.30;;
30571;SDS011;17348;50.948;10.696;2023-06-24T03:16:01;12.57;;;7.78;;
30571;SDS011;17348;50.948;10.696;2023-06-24T03:19:03;11.07;;;7.65;;
30571;SDS011;17348;50.948;10.696;2023-06-24T03:22:07;12.27;;;7.10;;
30571;SDS011;17348;50.948;10.696;2023-06-24T03:25:09;16.20;;;8.55;;
30571;SDS011;17348;50.948;10.696;2023-06-24T03:28:11;15.05;;;7.28;;
30571;SDS011;17348;50.948;10.696;2023-06-24T03:31:14;15.30;;;7.10;;
30571;SDS011;17348;50.948;10.696;2023-06-24T03:34:17;13.48;;;7.03;;
30571;SDS011;17348;50.948;10.696;2023-06-24T03:37:21;11.00;;;6.57;;
30571;SDS011;17348;50.948;10.696;2023-06-24T03:40:23;10.98;;;6.55;;
30571;SDS011;17348;50.948;10.696;2023-06-24T03:43:25;10.18;;;6.38;;
30571;SDS011;17348;50.948;10.696;2023-06-24T03:46:30;17.63;;;7.15;;
30571;SDS011;17348;50.948;10.696;2023-06-24T03:49:33;15.00;;;6.50;;
30571;SDS011;17348;50.948;10.696;2023-06-24T03:52:37;15.02;;;6.30;;
30571;SDS011;17348;50.948;10.696;2023-06-24T03:55:39;11.15;;;5.75;;
30571;SDS011;17348;50.948;10.696;2023-06-24T03:58:42;8.48;;;6.05;;
30571;SDS011;17348;50.948;10.696;2023-06-24T04:01:44;11.52;;;5.55;;
30571;SDS011;17348;50.948;10.696;2023-06-24T04:04:46;10.90;;;5.60;;
30571;SDS011;17348;50.948;10.696;2023-06-24T04:07:52;13.90;;;5.45;;
30571;SDS011;17348;50.948;10.696;2023-06-24T04:10:54;10.30;;;5.85;;
30571;SDS011;17348;50.948;10.696;2023-06-24T04:13:57;5.93;;;4.70;;
30571;SDS011;17348;50.948;10.696;2023-06-24T04:16:59;14.57;;;6.05;;
30571;SDS011;17348;50.948;10.696;2023-06-24T04:20:02;8.07;;;5.30;;
30571;SDS011;17348;50.948;10.696;2023-06-24T04:23:08;10.63;;;4.85;;
30571;SDS011;17348;50.948;10.696;2023-06-24T04:26:11;6.03;;;4.63;;
30571;SDS011;17348;50.948;10.696;2023-06-24T04:29:13;10.77;;;5.90;;
30571;SDS011;17348;50.948;10.696;2023-06-24T04:32:16;8.15;;;5.50;;
30571;SDS011;17348;50.948;10.696;2023-06-24T04:35:18;7.65;;;5.75;;
30571;SDS011;17348;50.948;10.696;2023-06-24T04:38:22;10.52;;;6.30;;
30571;SDS011;17348;50.948;10.696;2023-06-24T04:41:24;13.15;;;5.05;;
30571;SDS011;17348;50.948;10.696;2023-06-24T04:44:26;8.43;;;5.63;;
30571;SDS011;17348;50.948;10.696;2023-06-24T04:47:29;9.63;;;5.07;;
30571;SDS011;17348;50.948;10.696;2023-06-24T04:50:31;11.23;;;5.97;;
30571;SDS011;17348;50.948;10.696;2023-06-24T04:53:35;7.38;;;5.53;;
30571;SDS011;17348;50.948;10.696;2023-06-24T04:56:37;8.82;;;5.40;;
30571;SDS011;17348;50.948;10.696;2023-06-24T04:59:40;13.57;;;5.97;;
30571;SDS011;17348;50.948;10.696;2023-06-24T05:02:42;8.77;;;4.90;;
30571;SDS011;17348;50.948;10.696;2023-06-24T05:05:47;11.27;;;4.88;;
30571;SDS011;17348;50.948;10.696;2023-06-24T05:08:51;9.32;;;5.30;;
30571;SDS011;17348;50.948;10.696;2023-06-24T05:11:53;13.70;;;7.20;;
30571;SDS011;17348;50.948;10.696;2023-06-24T05:14:55;13.77;;;6.70;;
30571;SDS011;17348;50.948;10.696;2023-06-24T05:17:58;13.50;;;6.53;;
30571;SDS011;17348;50.948;10.696;2023-06-24T05:21:00;10.82;;;6.15;;
30571;SDS011;17348;50.948;10.696;2023-06-24T05:24:04;13.57;;;6.78;;
30571;SDS011;17348;50.948;10.696;2023-06-24T05:27:07;14.82;;;5.97;;
30571;SDS011;17348;50.948;10.696;2023-06-24T05:30:10;15.05;;;6.28;;
30571;SDS011;17348;50.948;10.696;2023-06-24T05:33:13;8.50;;;5.75;;
30571;SDS011;17348;50.948;10.696;2023-06-24T05:36:15;14.93;;;6.38;;
30571;SDS011;17348;50.948;10.696;2023-06-24T05:39:19;12.93;;;6.63;;
30571;SDS011;17348;50.948;10.696;2023-06-24T05:42:22;13.95;;;5.65;;
30571;SDS011;17348;50.948;10.696;2023-06-24T05:45:26;16.50;;;6.75;;
30571;SDS011;17348;50.948;10.696;2023-06-24T05:48:28;12.00;;;6.40;;
30571;SDS011;17348;50.948;10.696;2023-06-24T05:51:31;11.35;;;6.32;;
30571;SDS011;17348;50.948;10.696;2023-06-24T05:54:34;13.40;;;5.60;;
30571;SDS011;17348;50.948;10.696;2023-06-24T05:57:37;13.02;;;6.15;;
30571;SDS011;17348;50.948;10.696;2023-06-24T06:00:39;9.85;;;6.28;;
30571;SDS011;17348;50.948;10.696;2023-06-24T06:03:41;9.20;;;5.68;;
30571;SDS011;17348;50.948;10.696;2023-06-24T06:06:44;9.63;;;5.80;;
30571;SDS011;17348;50.948;10.696;2023-06-24T06:09:47;9.35;;;5.47;;
30571;SDS011;17348;50.948;10.696;2023-06-24T06:12:50;16.45;;;5.82;;
30571;SDS011;17348;50.948;10.696;2023-06-24T06:15:53;15.05;;;5.88;;
30571;SDS011;17348;50.948;10.696;2023-06-24T06:18:55;12.73;;;6.28;;
30571;SDS011;17348;50.948;10.696;2023-06-24T06:21:58;11.38;;;6.25;;
30571;SDS011;17348;50.948;10.696;2023-06-24T06:25:01;11.73;;;5.85;;
30571;SDS011;17348;50.948;10.696;2023-06-24T06:28:04;13.77;;;6.30;;
30571;SDS011;17348;50.948;10.696;2023-06-24T06:31:06;9.52;;;5.65;;
30571;SDS011;17348;50.948;10.696;2023-06-24T06:34:09;12.80;;;6.15;;
30571;SDS011;17348;50.948;10.696;2023-06-24T06:37:11;11.38;;;5.65;;
30571;SDS011;17348;50.948;10.696;2023-06-24T06:40:15;13.85;;;5.70;;
30571;SDS011;17348;50.948;10.696;2023-06-24T06:43:17;9.30;;;5.53;;
30571;SDS011;17348;50.948;10.696;2023-06-24T06:46:19;8.98;;;5.38;;
30571;SDS011;17348;50.948;10.696;2023-06-24T06:49:22;10.80;;;5.90;;
30571;SDS011;17348;50.948;10.696;2023-06-24T06:52:24;12.45;;;5.60;;
30571;SDS011;17348;50.948;10.696;2023-06-24T06:55:29;8.20;;;5.75;;
30571;SDS011;17348;50.948;10.696;2023-06-24T06:58:31;13.02;;;5.85;;
30571;SDS011;17348;50.948;10.696;2023-06-24T07:01:34;11.70;;;5.68;;
30571;SDS011;17348;50.948;10.696;2023-06-24T07:04:36;8.40;;;5.25;;
30571;SDS011;17348;50.948;10.696;2023-06-24T07:07:39;11.82;;;5.85;;
30571;SDS011;17348;50.948;10.696;2023-06-24T07:10:43;14.68;;;5.60;;
30571;SDS011;17348;50.948;10.696;2023-06-24T07:13:46;13.25;;;5.47;;
30571;SDS011;17348;50.948;10.696;2023-06-24T07:16:51;12.18;;;6.07;;
30571;SDS011;17348;50.948;10.696;2023-06-24T07:19:53;10.10;;;6.10;;
30571;SDS011;17348;50.948;10.696;2023-06-24T07:22:56;14.00;;;5.60;;
30571;SDS011;17348;50.948;10.696;2023-06-24T07:25:59;13.20;;;5.47;;
30571;SDS011;17348;50.948;10.696;2023-06-24T07:29:02;14.02;;;5.97;;
30571;SDS011;17348;50.948;10.696;2023-06-24T07:32:08;11.45;;;5.57;;
30571;SDS011;17348;50.948;10.696;2023-06-24T07:35:10;9.35;;;5.90;;
30571;SDS011;17348;50.948;10.696;2023-06-24T07:38:13;11.60;;;5.35;;
30571;SDS011;17348;50.948;10.696;2023-06-24T07:41:17;11.55;;;6.05;;
30571;SDS011;17348;50.948;10.696;2023-06-24T07:44:20;10.60;;;5.75;;
30571;SDS011;17348;50.948;10.696;2023-06-24T07:47:22;14.27;;;5.75;;
30571;SDS011;17348;50.948;10.696;2023-06-24T07:50:24;11.52;;;6.07;;
30571;SDS011;17348;50.948;10.696;2023-06-24T07:53:26;12.75;;;6.63;;
30571;SDS011;17348;50.948;10.696;2023-06-24T07:56:30;12.98;;;5.50;;
30571;SDS011;17348;50.948;10.696;2023-06-24T07:59:32;7.88;;;5.70;;
30571;SDS011;17348;50.948;10.696;2023-06-24T08:02:35;15.68;;;6.15;;
30571;SDS011;17348;50.948;10.696;2023-06-24T08:05:37;9.52;;;5.28;;
30571;SDS011;17348;50.948;10.696;2023-06-24T08:08:40;11.07;;;5.55;;
30571;SDS011;17348;50.948;10.696;2023-06-24T08:11:43;12.68;;;6.65;;
30571;SDS011;17348;50.948;10.696;2023-06-24T08:14:46;19.65;;;6.70;;
30571;SDS011;17348;50.948;10.696;2023-06-24T08:17:50;12.52;;;5.55;;
30571;SDS011;17348;50.948;10.696;2023-06-24T08:20:53;11.07;;;5.70;;
30571;SDS011;17348;50.948;10.696;2023-06-24T08:23:56;19.10;;;6.18;;
30571;SDS011;17348;50.948;10.696;2023-06-24T08:26:59;11.63;;;5.63;;
30571;SDS011;17348;50.948;10.696;2023-06-24T08:30:02;14.48;;;6.53;;
30571;SDS011;17348;50.948;10.696;2023-06-24T08:33:05;8.95;;;6.28;;
30571;SDS011;17348;50.948;10.696;2023-06-24T08:36:07;10.13;;;5.70;;
30571;SDS011;17348;50.948;10.696;2023-06-24T08:39:09;10.68;;;5.78;;
30571;SDS011;17348;50.948;10.696;2023-06-24T08:42:13;9.23;;;4.75;;
30571;SDS011;17348;50.948;10.696;2023-06-24T08:45:15;8.10;;;4.57;;
30571;SDS011;17348;50.948;10.696;2023-06-24T08:48:18;6.72;;;4.50;;
30571;SDS011;17348;50.948;10.696;2023-06-24T08:51:22;9.35;;;4.18;;
30571;SDS011;17348;50.948;10.696;2023-06-24T08:54:28;7.13;;;3.78;;
30571;SDS011;17348;50.948;10.696;2023-06-24T08:57:33;10.68;;;4.82;;
30571;SDS011;17348;50.948;10.696;2023-06-24T09:00:35;9.55;;;4.10;;
30571;SDS011;17348;50.948;10.696;2023-06-24T09:03:37;6.93;;;3.55;;
30571;SDS011;17348;50.948;10.696;2023-06-24T09:06:40;5.47;;;3.20;;
30571;SDS011;17348;50.948;10.696;2023-06-24T09:09:42;6.32;;;3.58;;
30571;SDS011;17348;50.948;10.696;2023-06-24T09:12:50;7.10;;;4.45;;
30571;SDS011;17348;50.948;10.696;2023-06-24T09:15:57;9.57;;;4.57;;
30571;SDS011;17348;50.948;10.696;2023-06-24T09:18:59;6.20;;;3.08;;
30571;SDS011;17348;50.948;10.696;2023-06-24T09:22:02;6.57;;;3.47;;
30571;SDS011;17348;50.948;10.696;2023-06-24T09:25:06;5.30;;;3.67;;
30571;SDS011;17348;50.948;10.696;2023-06-24T09:28:11;8.90;;;3.85;;
30571;SDS011;17348;50.948;10.696;2023-06-24T09:31:18;14.38;;;4.15;;
30571;SDS011;17348;50.948;10.696;2023-06-24T09:34:21;11.45;;;4.25;;
30571;SDS011;17348;50.948;10.696;2023-06-24T09:37:24;6.90;;;3.65;;
30571;SDS011;17348;50.948;10.696;2023-06-24T09:40:31;7.05;;;3.47;;
30571;SDS011;17348;50.948;10.696;2023-06-24T09:43:38;7.38;;;3.80;;
30571;SDS011;17348;50.948;10.696;2023-06-24T09:46:41;12.77;;;3.88;;
30571;SDS011;17348;50.948;10.696;2023-06-24T09:49:44;7.30;;;3.50;;
30571;SDS011;17348;50.948;10.696;2023-06-24T09:52:48;5.60;;;3.63;;
30571;SDS011;17348;50.948;10.696;2023-06-24T09:55:51;11.43;;;3.75;;
30571;SDS011;17348;50.948;10.696;2023-06-24T09:58:56;13.18;;;3.58;;
30571;SDS011;17348;50.948;10.696;2023-06-24T10:01:58;4.78;;;3.35;;
30571;SDS011;17348;50.948;10.696;2023-06-24T10:05:01;5.95;;;3.63;;
30571;SDS011;17348;50.948;10.696;2023-06-24T10:08:05;8.48;;;3.72;;
30571;SDS011;17348;50.948;10.696;2023-06-24T10:11:08;4.85;;;3.17;;
30571;SDS011;17348;50.948;10.696;2023-06-24T10:14:12;5.15;;;3.17;;
30571;SDS011;17348;50.948;10.696;2023-06-24T10:17:15;6.68;;;2.92;;
30571;SDS011;17348;50.948;10.696;2023-06-24T10:20:23;5.70;;;3.90;;
30571;SDS011;17348;50.948;10.696;2023-06-24T10:23:29;6.15;;;3.22;;
30571;SDS011;17348;50.948;10.696;2023-06-24T10:26:35;8.93;;;3.33;;
30571;SDS011;17348;50.948;10.696;2023-06-24T10:29:39;4.72;;;3.25;;
30571;SDS011;17348;50.948;10.696;2023-06-24T10:32:45;9.77;;;3.22;;
30571;SDS011;17348;50.948;10.696;2023-06-24T10:35:53;9.32;;;3.75;;
30571;SDS011;17348;50.948;10.696;2023-06-24T10:38:55;6.75;;;3.83;;
30571;SDS011;17348;50.948;10.696;2023-06-24T10:42:00;10.95;;;3.65;;
30571;SDS011;17348;50.948;10.696;2023-06-24T10:45:32;5.57;;;3.20;;
30571;SDS011;17348;50.948;10.696;2023-06-24T10:48:36;5.78;;;3.13;;
30571;SDS011;17348;50.948;10.696;2023-06-24T10:51:39;8.45;;;3.33;;
30571;SDS011;17348;50.948;10.696;2023-06-24T10:54:43;3.78;;;3.10;;
30571;SDS011;17348;50.948;10.696;2023-06-24T10:57:45;9.68;;;3.55;;
30571;SDS011;17348;50.948;10.696;2023-06-24T11:00:49;11.00;;;3.75;;
30571;SDS011;17348;50.948;10.696;2023-06-24T11:03:51;4.40;;;2.97;;
30571;SDS011;17348;50.948;10.696;2023-06-24T11:06:57;4.07;;;3.13;;
30571;SDS011;17348;50.948;10.696;2023-06-24T11:10:01;4.68;;;3.25;;
30571;SDS011;17348;50.948;10.696;2023-06-24T11:13:05;4.78;;;3.03;;
30571;SDS011;17348;50.948;10.696;2023-06-24T11:16:09;4.43;;;2.70;;
30571;SDS011;17348;50.948;10.696;2023-06-24T11:19:11;7.03;;;2.88;;
30571;SDS011;17348;50.948;10.696;2023-06-24T11:22:15;5.82;;;3.33;;
30571;SDS011;17348;50.948;10.696;2023-06-24T11:25:18;4.00;;;2.72;;
30571;SDS011;17348;50.948;10.696;2023-06-24T11:28:22;5.10;;;3.33;;
30571;SDS011;17348;50.948;10.696;2023-06-24T11:31:26;5.80;;;3.75;;
30571;SDS011;17348;50.948;10.696;2023-06-24T11:34:28;6.75;;;3.17;;
30571;SDS011;17348;50.948;10.696;2023-06-24T11:37:31;14.73;;;3.65;;
30571;SDS011;17348;50.948;10.696;2023-06-24T11:40:34;4.05;;;2.92;;
30571;SDS011;17348;50.948;10.696;2023-06-24T11:43:36;9.43;;;3.55;;
30571;SDS011;17348;50.948;10.696;2023-06-24T11:46:40;8.68;;;3.30;;
30571;SDS011;17348;50.948;10.696;2023-06-24T11:49:48;5.03;;;3.15;;
30571;SDS011;17348;50.948;10.696;2023-06-24T11:52:51;5.35;;;3.05;;
30571;SDS011;17348;50.948;10.696;2023-06-24T11:55:55;5.57;;;3.17;;
30571;SDS011;17348;50.948;10.696;2023-06-24T11:58:58;3.45;;;2.67;;
30571;SDS011;17348;50.948;10.696;2023-06-24T12:02:02;4.65;;;3.22;;
30571;SDS011;17348;50.948;10.696;2023-06-24T12:05:05;3.97;;;2.97;;
30571;SDS011;17348;50.948;10.696;2023-06-24T12:08:09;4.72;;;2.85;;
30571;SDS011;17348;50.948;10.696;2023-06-24T12:11:13;7.22;;;2.90;;
30571;SDS011;17348;50.948;10.696;2023-06-24T12:14:15;6.20;;;3.20;;
30571;SDS011;17348;50.948;10.696;2023-06-24T12:17:19;5.28;;;2.60;;
30571;SDS011;17348;50.948;10.696;2023-06-24T12:20:21;8.98;;;3.08;;
30571;SDS011;17348;50.948;10.696;2023-06-24T12:23:25;5.82;;;3.05;;
30571;SDS011;17348;50.948;10.696;2023-06-24T12:26:27;4.45;;;3.05;;
30571;SDS011;17348;50.948;10.696;2023-06-24T12:29:30;4.82;;;3.25;;
30571;SDS011;17348;50.948;10.696;2023-06-24T12:32:33;4.32;;;2.65;;
30571;SDS011;17348;50.948;10.696;2023-06-24T12:35:36;4.60;;;3.05;;
30571;SDS011;17348;50.948;10.696;2023-06-24T12:38:38;4.20;;;3.05;;
30571;SDS011;17348;50.948;10.696;2023-06-24T12:41:41;5.57;;;2.83;;
30571;SDS011;17348;50.948;10.696;2023-06-24T12:44:43;8.35;;;3.05;;
30571;SDS011;17348;50.948;10.696;2023-06-24T12:47:47;5.35;;;2.92;;
30571;SDS011;17348;50.948;10.696;2023-06-24T12:50:51;6.57;;;3.08;;
30571;SDS011;17348;50.948;10.696;2023-06-24T12:53:53;6.10;;;2.92;;
30571;SDS011;17348;50.948;10.696;2023-06-24T12:56:56;4.68;;;2.90;;
30571;SDS011;17348;50.948;10.696;2023-06-24T12:59:58;5.38;;;3.30;;
30571;SDS011;17348;50.948;10.696;2023-06-24T13:03:02;5.90;;;3.42;;
30571;SDS011;17348;50.948;10.696;2023-06-24T13:06:05;5.20;;;3.10;;
30571;SDS011;17348;50.948;10.696;2023-06-24T13:09:07;6.25;;;3.03;;
30571;SDS011;17348;50.948;10.696;2023-06-24T13:12:10;5.13;;;3.22;;
30571;SDS011;17348;50.948;10.696;2023-06-24T13:15:12;5.65;;;3.00;;
30571;SDS011;17348;50.948;10.696;2023-06-24T13:18:16;5.65;;;3.13;;
30571;SDS011;17348;50.948;10.696;2023-06-24T13:21:20;5.35;;;2.63;;
30571;SDS011;17348;50.948;10.696;2023-06-24T13:24:22;3.70;;;2.75;;
30571;SDS011;17348;50.948;10.696;2023-06-24T13:27:25;3.88;;;2.58;;
30571;SDS011;17348;50.948;10.696;2023-06-24T13:30:28;4.43;;;2.97;;
30571;SDS011;17348;50.948;10.696;2023-06-24T13:33:31;4.03;;;2.63;;
30571;SDS011;17348;50.948;10.696;2023-06-24T13:36:34;3.75;;;2.65;;
30571;SDS011;17348;50.948;10.696;2023-06-24T13:39:37;4.45;;;2.67;;
30571;SDS011;17348;50.948;10.696;2023-06-24T13:42:40;4.72;;;2.60;;
30571;SDS011;17348;50.948;10.696;2023-06-24T13:45:42;3.42;;;2.33;;
30571;SDS011;17348;50.948;10.696;2023-06-24T13:48:46;3.85;;;2.47;;
30571;SDS011;17348;50.948;10.696;2023-06-24T13:51:48;7.45;;;3.22;;
30571;SDS011;17348;50.948;10.696;2023-06-24T13:54:51;6.38;;;3.33;;
30571;SDS011;17348;50.948;10.696;2023-06-24T13:57:53;5.82;;;2.70;;
30571;SDS011;17348;50.948;10.696;2023-06-24T14:00:55;4.57;;;2.83;;
30571;SDS011;17348;50.948;10.696;2023-06-24T14:03:59;5.22;;;2.95;;
30571;SDS011;17348;50.948;10.696;2023-06-24T14:07:01;2.20;;;1.85;;
30571;SDS011;17348;50.948;10.696;2023-06-24T14:10:05;4.20;;;2.58;;
30571;SDS011;17348;50.948;10.696;2023-06-24T14:13:08;6.68;;;2.78;;
30571;SDS011;17348;50.948;10.696;2023-06-24T14:16:11;3.97;;;2.38;;
30571;SDS011;17348;50.948;10.696;2023-06-24T14:19:15;5.15;;;2.85;;
30571;SDS011;17348;50.948;10.696;2023-06-24T14:22:17;5.40;;;2.55;;
30571;SDS011;17348;50.948;10.696;2023-06-24T14:25:20;6.85;;;2.40;;
30571;SDS011;17348;50.948;10.696;2023-06-24T14:28:22;8.38;;;2.22;;
30571;SDS011;17348;50.948;10.696;2023-06-24T14:31:25;3.63;;;2.92;;
30571;SDS011;17348;50.948;10.696;2023-06-24T14:34:28;5.07;;;2.55;;
30571;SDS011;17348;50.948;10.696;2023-06-24T14:37:31;8.77;;;2.58;;
30571;SDS011;17348;50.948;10.696;2023-06-24T14:40:33;3.60;;;2.60;;
30571;SDS011;17348;50.948;10.696;2023-06-24T14:43:36;4.78;;;2.60;;
30571;SDS011;17348;50.948;10.696;2023-06-24T14:46:38;5.38;;;2.10;;
30571;SDS011;17348;50.948;10.696;2023-06-24T14:49:42;5.38;;;2.75;;
30571;SDS011;17348;50.948;10.696;2023-06-24T14:52:44;4.72;;;2.60;;
30571;SDS011;17348;50.948;10.696;2023-06-24T14:55:47;3.17;;;2.38;;
30571;SDS011;17348;50.948;10.696;2023-06-24T14:58:50;4.28;;;2.83;;
30571;SDS011;17348;50.948;10.696;2023-06-24T15:01:52;7.22;;;2.15;;
30571;SDS011;17348;50.948;10.696;2023-06-24T15:04:56;3.90;;;2.65;;
30571;SDS011;17348;50.948;10.696;2023-06-24T15:07:59;6.03;;;2.90;;
30571;SDS011;17348;50.948;10.696;2023-06-24T15:11:01;4.78;;;2.45;;
30571;SDS011;17348;50.948;10.696;2023-06-24T15:14:04;4.03;;;2.55;;
30571;SDS011;17348;50.948;10.696;2023-06-24T15:17:06;4.25;;;2.70;;
30571;SDS011;17348;50.948;10.696;2023-06-24T15:20:10;5.85;;;2.50;;
30571;SDS011;17348;50.948;10.696;2023-06-24T15:23:13;4.72;;;2.75;;
30571;SDS011;17348;50.948;10.696;2023-06-24T15:26:15;6.22;;;3.13;;
30571;SDS011;17348;50.948;10.696;2023-06-24T15:29:18;6.30;;;2.30;;
30571;SDS011;17348;50.948;10.696;2023-06-24T15:32:20;4.45;;;2.90;;
30571;SDS011;17348;50.948;10.696;2023-06-24T15:35:24;3.55;;;2.45;;
30571;SDS011;17348;50.948;10.696;2023-06-24T15:38:26;7.95;;;2.72;;
30571;SDS011;17348;50.948;10.696;2023-06-24T15:41:28;4.93;;;2.67;;
30571;SDS011;17348;50.948;10.696;2023-06-24T15:44:31;3.88;;;2.60;;
30571;SDS011;17348;50.948;10.696;2023-06-24T15:47:33;5.28;;;3.08;;
30571;SDS011;17348;50.948;10.696;2023-06-24T15:50:37;5.45;;;2.67;;
30571;SDS011;17348;50.948;10.696;2023-06-24T15:53:43;4.40;;;2.95;;
30571;SDS011;17348;50.948;10.696;2023-06-24T15:56:45;4.45;;;2.40;;
30571;SDS011;17348;50.948;10.696;2023-06-24T15:59:48;3.15;;;2.65;;
30571;SDS011;17348;50.948;10.696;2023-06-24T16:02:50;4.05;;;2.22;;
30571;SDS011;17348;50.948;10.696;2023-06-24T16:05:54;5.70;;;2.70;;
30571;SDS011;17348;50.948;10.696;2023-06-24T16:08:56;4.40;;;2.60;;
30571;SDS011;17348;50.948;10.696;2023-06-24T16:11:58;4.95;;;3.13;;
30571;SDS011;17348;50.948;10.696;2023-06-24T16:15:00;6.38;;;2.90;;
30571;SDS011;17348;50.948;10.696;2023-06-24T16:18:03;10.70;;;3.47;;
30571;SDS011;17348;50.948;10.696;2023-06-24T16:21:07;11.40;;;3.28;;
30571;SDS011;17348;50.948;10.696;2023-06-24T16:24:09;3.88;;;2.30;;
30571;SDS011;17348;50.948;10.696;2023-06-24T16:27:12;3.85;;;2.97;;
30571;SDS011;17348;50.948;10.696;2023-06-24T16:30:14;3.28;;;2.20;;
30571;SDS011;17348;50.948;10.696;2023-06-24T16:33:16;6.05;;;3.38;;
30571;SDS011;17348;50.948;10.696;2023-06-24T16:36:20;3.88;;;2.88;;
30571;SDS011;17348;50.948;10.696;2023-06-24T16:39:22;5.55;;;2.38;;
30571;SDS011;17348;50.948;10.696;2023-06-24T16:42:25;6.72;;;2.92;;
30571;SDS011;17348;50.948;10.696;2023-06-24T16:45:27;5.32;;;2.75;;
30571;SDS011;17348;50.948;10.696;2023-06-24T16:48:29;5.05;;;3.08;;
30571;SDS011;17348;50.948;10.696;2023-06-24T16:51:33;5.57;;;2.85;;
30571;SDS011;17348;50.948;10.696;2023-06-24T16:54:35;4.07;;;2.88;;
30571;SDS011;17348;50.948;10.696;2023-06-24T16:57:38;4.20;;;3.13;;
30571;SDS011;17348;50.948;10.696;2023-06-24T17:00:40;6.32;;;3.45;;
30571;SDS011;17348;50.948;10.696;2023-06-24T17:03:42;5.10;;;3.10;;
30571;SDS011;17348;50.948;10.696;2023-06-24T17:06:47;5.88;;;3.28;;
30571;SDS011;17348;50.948;10.696;2023-06-24T17:09:49;7.28;;;3.97;;
30571;SDS011;17348;50.948;10.696;2023-06-24T17:12:53;5.10;;;3.00;;
30571;SDS011;17348;50.948;10.696;2023-06-24T17:15:56;9.45;;;3.63;;
30571;SDS011;17348;50.948;10.696;2023-06-24T17:18:58;7.72;;;3.83;;
30571;SDS011;17348;50.948;10.696;2023-06-24T17:22:02;4.47;;;2.78;;
30571;SDS011;17348;50.948;10.696;2023-06-24T17:25:04;7.93;;;3.22;;
30571;SDS011;17348;50.948;10.696;2023-06-24T17:28:07;7.63;;;3.05;;
30571;SDS011;17348;50.948;10.696;2023-06-24T17:31:09;8.15;;;3.42;;
30571;SDS011;17348;50.948;10.696;2023-06-24T17:34:12;9.95;;;3.05;;
30571;SDS011;17348;50.948;10.696;2023-06-24T17:37:15;7.28;;;3.40;;
30571;SDS011;17348;50.948;10.696;2023-06-24T17:40:18;6.10;;;2.88;;
30571;SDS011;17348;50.948;10.696;2023-06-24T17:43:20;9.35;;;3.22;;
30571;SDS011;17348;50.948;10.696;2023-06-24T17:46:22;5.13;;;3.28;;
30571;SDS011;17348;50.948;10.696;2023-06-24T17:49:25;5.53;;;3.35;;
30571;SDS011;17348;50.948;10.696;2023-06-24T17:52:28;7.00;;;3.42;;
30571;SDS011;17348;50.948;10.696;2023-06-24T17:55:33;6.07;;;3.35;;
30571;SDS011;17348;50.948;10.696;2023-06-24T17:58:37;7.45;;;3.00;;
30571;SDS011;17348;50.948;10.696;2023-06-24T18:01:39;7.10;;;3.90;;
30571;SDS011;17348;50.948;10.696;2023-06-24T18:04:42;7.45;;;3.53;;
30571;SDS011;17348;50.948;10.696;2023-06-24T18:07:45;5.72;;;3.45;;